<?xml version="1.0" encoding="UTF-8" standalone="no" ?>
<gpx xmlns="http://www.topografix.com/GPX/1/1" xmlns:xsi="http://www.w3.org/2001/XMLSchema-instance" xsi:schemaLocation="http://www.topografix.com/GPX/1/1 http://www.topografix.com/GPX/1/1/gpx.xsd" version="1.1" creator="VisuGPX - https://www.visugpx.com">
  <metadata>
    <name>De Meillerie à Salvigny</name>
    <desc><![CDATA[Randonnée en Haute-Savoie]]></desc>
  </metadata>
  <trk>
    <name><![CDATA[ACTIVE LOG: 29 JUL 2015 11:24]]></name>
    <trkseg>
      <trkpt lat="46.09121" lon="6.73969">
        <ele>758.62</ele>
        <time>2015-07-29T09:26:46Z</time>
      </trkpt>
      <trkpt lat="46.09067" lon="6.73937">
        <ele>756.21</ele>
        <time>2015-07-29T09:27:51Z</time>
      </trkpt>
      <trkpt lat="46.09018" lon="6.73859">
        <ele>754.77</ele>
        <time>2015-07-29T09:28:56Z</time>
      </trkpt>
      <trkpt lat="46.08948" lon="6.73841">
        <ele>755.73</ele>
        <time>2015-07-29T09:30:01Z</time>
      </trkpt>
      <trkpt lat="46.08895" lon="6.73837">
        <ele>755.25</ele>
        <time>2015-07-29T09:31:06Z</time>
      </trkpt>
      <trkpt lat="46.08824" lon="6.73792">
        <ele>753.33</ele>
        <time>2015-07-29T09:32:11Z</time>
      </trkpt>
      <trkpt lat="46.08758" lon="6.73741">
        <ele>749.97</ele>
        <time>2015-07-29T09:33:16Z</time>
      </trkpt>
      <trkpt lat="46.08711" lon="6.73711">
        <ele>749.49</ele>
        <time>2015-07-29T09:34:21Z</time>
      </trkpt>
      <trkpt lat="46.08693" lon="6.73634">
        <ele>746.6</ele>
        <time>2015-07-29T09:35:26Z</time>
      </trkpt>
      <trkpt lat="46.08651" lon="6.73556">
        <ele>747.56</ele>
        <time>2015-07-29T09:36:31Z</time>
      </trkpt>
      <trkpt lat="46.086" lon="6.73483">
        <ele>745.64</ele>
        <time>2015-07-29T09:37:36Z</time>
      </trkpt>
      <trkpt lat="46.08552" lon="6.73437">
        <ele>742.76</ele>
        <time>2015-07-29T09:38:41Z</time>
      </trkpt>
      <trkpt lat="46.08499" lon="6.73418">
        <ele>736.99</ele>
        <time>2015-07-29T09:39:46Z</time>
      </trkpt>
      <trkpt lat="46.08453" lon="6.73394">
        <ele>727.37</ele>
        <time>2015-07-29T09:40:51Z</time>
      </trkpt>
      <trkpt lat="46.0841" lon="6.73403">
        <ele>721.13</ele>
        <time>2015-07-29T09:41:56Z</time>
      </trkpt>
      <trkpt lat="46.08375" lon="6.73364">
        <ele>717.28</ele>
        <time>2015-07-29T09:43:01Z</time>
      </trkpt>
      <trkpt lat="46.08346" lon="6.73282">
        <ele>715.84</ele>
        <time>2015-07-29T09:44:06Z</time>
      </trkpt>
      <trkpt lat="46.08333" lon="6.73224">
        <ele>713.44</ele>
        <time>2015-07-29T09:45:11Z</time>
      </trkpt>
      <trkpt lat="46.08335" lon="6.7316">
        <ele>711.51</ele>
        <time>2015-07-29T09:46:16Z</time>
      </trkpt>
      <trkpt lat="46.08312" lon="6.73063">
        <ele>708.15</ele>
        <time>2015-07-29T09:47:21Z</time>
      </trkpt>
      <trkpt lat="46.0832" lon="6.72982">
        <ele>705.75</ele>
        <time>2015-07-29T09:48:26Z</time>
      </trkpt>
      <trkpt lat="46.08349" lon="6.72893">
        <ele>704.78</ele>
        <time>2015-07-29T09:49:31Z</time>
      </trkpt>
      <trkpt lat="46.08354" lon="6.72811">
        <ele>703.34</ele>
        <time>2015-07-29T09:50:36Z</time>
      </trkpt>
    </trkseg>
  </trk>
</gpx>